sensor_id;sensor_type;location;lat;lon;timestamp;pressure;altitude;pressure_sealevel;temperature;humidity
78485;BME280;67773;50.806;8.776;2023-10-08T00:00:47;100233.25;;;16.17;72.08
78485;BME280;67773;50.806;8.776;2023-10-08T00:03:18;100233.84;;;16.08;72.30
78485;BME280;67773;50.806;8.776;2023-10-08T00:05:45;100224.94;;;16.08;73.34
78485;BME280;67773;50.806;8.776;2023-10-08T00:08:11;100220.78;;;15.90;73.80
78485;BME280;67773;50.806;8.776;2023-10-08T00:10:37;100216.38;;;15.88;73.10
78485;BME280;67773;50.806;8.776;2023-10-08T00:13:05;100217.13;;;15.91;71.95
78485;BME280;67773;50.806;8.776;2023-10-08T00:15:35;100214.19;;;15.95;72.96
78485;BME280;67773;50.806;8.776;2023-10-08T00:18:02;100222.09;;;15.97;72.69
78485;BME280;67773;50.806;8.776;2023-10-08T00:20:27;100213.50;;;15.92;73.53
78485;BME280;67773;50.806;8.776;2023-10-08T00:23:01;100239.63;;;16.15;72.16
78485;BME280;67773;50.806;8.776;2023-10-08T00:25:31;100240.22;;;16.20;69.98
78485;BME280;67773;50.806;8.776;2023-10-08T00:27:58;100241.97;;;16.34;70.35
78485;BME280;67773;50.806;8.776;2023-10-08T00:30:24;100233.78;;;16.23;70.89
78485;BME280;67773;50.806;8.776;2023-10-08T00:32:49;100235.88;;;16.32;69.86
78485;BME280;67773;50.806;8.776;2023-10-08T00:35:14;100231.25;;;16.61;68.08
78485;BME280;67773;50.806;8.776;2023-10-08T00:37:46;100227.41;;;16.65;68.10
78485;BME280;67773;50.806;8.776;2023-10-08T00:40:12;100230.91;;;16.53;69.59
78485;BME280;67773;50.806;8.776;2023-10-08T00:42:38;100235.31;;;16.54;68.16
78485;BME280;67773;50.806;8.776;2023-10-08T00:45:10;100232.75;;;16.65;67.88
78485;BME280;67773;50.806;8.776;2023-10-08T00:47:39;100237.34;;;16.50;69.19
78485;BME280;67773;50.806;8.776;2023-10-08T00:50:09;100234.78;;;16.49;70.14
78485;BME280;67773;50.806;8.776;2023-10-08T00:52:35;100239.81;;;16.26;70.46
78485;BME280;67773;50.806;8.776;2023-10-08T00:55:10;100246.16;;;16.65;69.06
78485;BME280;67773;50.806;8.776;2023-10-08T00:57:47;100249.16;;;16.60;68.17
78485;BME280;67773;50.806;8.776;2023-10-08T01:00:14;100239.31;;;16.61;67.88
78485;BME280;67773;50.806;8.776;2023-10-08T01:02:57;100234.69;;;16.63;68.37
78485;BME280;67773;50.806;8.776;2023-10-08T01:05:26;100229.72;;;16.57;68.37
78485;BME280;67773;50.806;8.776;2023-10-08T01:08:08;100226.88;;;16.60;67.95
78485;BME280;67773;50.806;8.776;2023-10-08T01:10:37;100222.97;;;16.51;69.13
78485;BME280;67773;50.806;8.776;2023-10-08T01:13:03;100231.00;;;16.51;68.38
78485;BME280;67773;50.806;8.776;2023-10-08T01:15:37;100227.25;;;16.54;68.96
78485;BME280;67773;50.806;8.776;2023-10-08T01:18:03;100225.03;;;16.33;70.07
78485;BME280;67773;50.806;8.776;2023-10-08T01:20:30;100227.38;;;16.25;69.75
78485;BME280;67773;50.806;8.776;2023-10-08T01:23:17;100230.28;;;16.35;70.11
78485;BME280;67773;50.806;8.776;2023-10-08T01:25:46;100239.03;;;16.24;70.98
78485;BME280;67773;50.806;8.776;2023-10-08T01:28:22;100231.81;;;16.12;70.97
78485;BME280;67773;50.806;8.776;2023-10-08T01:30:52;100216.97;;;16.48;69.33
78485;BME280;67773;50.806;8.776;2023-10-08T01:33:19;100210.31;;;16.53;68.66
78485;BME280;67773;50.806;8.776;2023-10-08T01:35:46;100222.72;;;16.41;69.86
78485;BME280;67773;50.806;8.776;2023-10-08T01:38:14;100201.25;;;16.29;70.62
78485;BME280;67773;50.806;8.776;2023-10-08T01:40:41;100190.56;;;16.14;71.60
78485;BME280;67773;50.806;8.776;2023-10-08T01:43:06;100205.59;;;16.17;71.74
78485;BME280;67773;50.806;8.776;2023-10-08T01:45:35;100216.25;;;16.31;69.88
78485;BME280;67773;50.806;8.776;2023-10-08T01:48:01;100219.31;;;16.25;70.29
78485;BME280;67773;50.806;8.776;2023-10-08T01:50:26;100237.31;;;16.23;70.08
78485;BME280;67773;50.806;8.776;2023-10-08T01:52:55;100246.78;;;16.29;70.49
78485;BME280;67773;50.806;8.776;2023-10-08T01:55:20;100240.16;;;16.07;71.28
78485;BME280;67773;50.806;8.776;2023-10-08T01:57:49;100240.25;;;16.06;72.11
78485;BME280;67773;50.806;8.776;2023-10-08T02:00:18;100219.06;;;15.88;72.82
78485;BME280;67773;50.806;8.776;2023-10-08T02:02:52;100236.34;;;15.83;72.80
78485;BME280;67773;50.806;8.776;2023-10-08T02:05:19;100242.56;;;15.98;72.55
78485;BME280;67773;50.806;8.776;2023-10-08T02:07:45;100239.88;;;15.83;73.56
78485;BME280;67773;50.806;8.776;2023-10-08T02:10:10;100241.97;;;15.93;74.34
78485;BME280;67773;50.806;8.776;2023-10-08T02:12:38;100251.47;;;15.70;74.46
78485;BME280;67773;50.806;8.776;2023-10-08T02:15:04;100258.81;;;15.80;74.24
78485;BME280;67773;50.806;8.776;2023-10-08T02:17:32;100270.28;;;15.82;72.90
78485;BME280;67773;50.806;8.776;2023-10-08T02:19:57;100270.19;;;15.98;73.25
78485;BME280;67773;50.806;8.776;2023-10-08T02:22:22;100259.13;;;15.76;73.88
78485;BME280;67773;50.806;8.776;2023-10-08T02:24:48;100266.84;;;15.80;74.04
78485;BME280;67773;50.806;8.776;2023-10-08T02:27:16;100259.03;;;15.77;72.85
78485;BME280;67773;50.806;8.776;2023-10-08T02:29:41;100266.78;;;16.23;71.62
78485;BME280;67773;50.806;8.776;2023-10-08T02:32:07;100271.44;;;16.07;72.27
78485;BME280;67773;50.806;8.776;2023-10-08T02:34:32;100272.16;;;16.23;71.93
78485;BME280;67773;50.806;8.776;2023-10-08T02:36:58;100278.34;;;15.97;72.58
78485;BME280;67773;50.806;8.776;2023-10-08T02:39:24;100284.94;;;16.05;72.04
78485;BME280;67773;50.806;8.776;2023-10-08T02:41:52;100290.19;;;15.93;72.02
78485;BME280;67773;50.806;8.776;2023-10-08T02:44:18;100296.13;;;15.98;71.92
78485;BME280;67773;50.806;8.776;2023-10-08T02:46:46;100292.94;;;16.20;71.08
78485;BME280;67773;50.806;8.776;2023-10-08T02:49:13;100295.72;;;15.90;72.17
78485;BME280;67773;50.806;8.776;2023-10-08T02:51:42;100303.00;;;15.87;72.42
78485;BME280;67773;50.806;8.776;2023-10-08T02:54:10;100303.16;;;16.13;72.15
78485;BME280;67773;50.806;8.776;2023-10-08T02:56:51;100313.22;;;16.09;72.37
78485;BME280;67773;50.806;8.776;2023-10-08T02:59:20;100303.28;;;15.97;72.39
78485;BME280;67773;50.806;8.776;2023-10-08T03:01:47;100308.06;;;16.06;71.98
78485;BME280;67773;50.806;8.776;2023-10-08T03:04:14;100320.59;;;16.06;72.54
78485;BME280;67773;50.806;8.776;2023-10-08T03:06:43;100302.13;;;16.15;72.50
78485;BME280;67773;50.806;8.776;2023-10-08T03:09:08;100312.34;;;16.09;72.19
78485;BME280;67773;50.806;8.776;2023-10-08T03:11:33;100308.34;;;16.16;72.47
78485;BME280;67773;50.806;8.776;2023-10-08T03:14:01;100300.03;;;16.06;72.28
78485;BME280;67773;50.806;8.776;2023-10-08T03:16:26;100284.72;;;16.08;72.25
78485;BME280;67773;50.806;8.776;2023-10-08T03:19:01;100289.03;;;15.97;72.60
78485;BME280;67773;50.806;8.776;2023-10-08T03:21:26;100289.59;;;16.02;72.84
78485;BME280;67773;50.806;8.776;2023-10-08T03:24:03;100285.78;;;15.92;73.35
78485;BME280;67773;50.806;8.776;2023-10-08T03:26:38;100280.81;;;15.71;74.16
78485;BME280;67773;50.806;8.776;2023-10-08T03:29:05;100268.97;;;15.75;73.97
78485;BME280;67773;50.806;8.776;2023-10-08T03:31:34;100243.81;;;15.92;73.38
78485;BME280;67773;50.806;8.776;2023-10-08T03:34:17;100248.53;;;15.74;74.03
78485;BME280;67773;50.806;8.776;2023-10-08T03:36:45;100248.03;;;15.68;74.31
78485;BME280;67773;50.806;8.776;2023-10-08T03:39:11;100232.63;;;15.57;75.01
78485;BME280;67773;50.806;8.776;2023-10-08T03:41:42;100224.44;;;15.60;74.60
78485;BME280;67773;50.806;8.776;2023-10-08T03:44:08;100222.78;;;15.57;75.23
78485;BME280;67773;50.806;8.776;2023-10-08T03:46:40;100200.13;;;15.49;75.79
78485;BME280;67773;50.806;8.776;2023-10-08T03:49:12;100203.97;;;15.45;76.19
78485;BME280;67773;50.806;8.776;2023-10-08T03:51:57;100192.28;;;15.31;76.58
78485;BME280;67773;50.806;8.776;2023-10-08T03:54:23;100195.47;;;15.38;76.80
78485;BME280;67773;50.806;8.776;2023-10-08T03:56:55;100199.94;;;15.38;76.64
78485;BME280;67773;50.806;8.776;2023-10-08T03:59:21;100220.03;;;15.45;76.33
78485;BME280;67773;50.806;8.776;2023-10-08T04:02:06;100217.72;;;15.53;76.16
78485;BME280;67773;50.806;8.776;2023-10-08T04:04:47;100241.91;;;15.80;74.87
78485;BME280;67773;50.806;8.776;2023-10-08T04:07:23;100261.72;;;15.63;75.26
78485;BME280;67773;50.806;8.776;2023-10-08T04:09:58;100273.47;;;15.89;74.68
78485;BME280;67773;50.806;8.776;2023-10-08T04:12:33;100289.16;;;15.67;74.63
78485;BME280;67773;50.806;8.776;2023-10-08T04:15:01;100294.00;;;15.60;74.56
78485;BME280;67773;50.806;8.776;2023-10-08T04:17:26;100288.16;;;15.53;75.77
78485;BME280;67773;50.806;8.776;2023-10-08T04:19:52;100299.59;;;15.41;76.41
78485;BME280;67773;50.806;8.776;2023-10-08T04:22:17;100287.56;;;15.34;76.59
78485;BME280;67773;50.806;8.776;2023-10-08T04:24:44;100301.91;;;15.33;76.63
78485;BME280;67773;50.806;8.776;2023-10-08T04:27:09;100314.31;;;15.34;76.83
78485;BME280;67773;50.806;8.776;2023-10-08T04:29:35;100323.81;;;15.54;77.12
78485;BME280;67773;50.806;8.776;2023-10-08T04:32:03;100321.38;;;15.35;78.24
78485;BME280;67773;50.806;8.776;2023-10-08T04:34:42;100313.78;;;15.13;78.92
78485;BME280;67773;50.806;8.776;2023-10-08T04:37:11;100310.03;;;15.01;79.68
78485;BME280;67773;50.806;8.776;2023-10-08T04:39:38;100315.38;;;15.01;80.18
78485;BME280;67773;50.806;8.776;2023-10-08T04:42:06;100303.09;;;14.83;81.08
78485;BME280;67773;50.806;8.776;2023-10-08T04:44:36;100268.97;;;14.72;81.51
78485;BME280;67773;50.806;8.776;2023-10-08T04:47:04;100251.69;;;14.78;80.23
78485;BME280;67773;50.806;8.776;2023-10-08T04:49:30;100230.16;;;14.81;79.80
78485;BME280;67773;50.806;8.776;2023-10-08T04:52:02;100232.75;;;14.97;78.96
78485;BME280;67773;50.806;8.776;2023-10-08T04:54:38;100216.09;;;15.22;77.25
78485;BME280;67773;50.806;8.776;2023-10-08T04:57:06;100202.91;;;15.19;77.47
78485;BME280;67773;50.806;8.776;2023-10-08T04:59:32;100216.09;;;15.22;76.94
78485;BME280;67773;50.806;8.776;2023-10-08T05:02:00;100253.44;;;15.38;76.93
78485;BME280;67773;50.806;8.776;2023-10-08T05:04:44;100275.16;;;15.33;76.90
78485;BME280;67773;50.806;8.776;2023-10-08T05:07:24;100256.22;;;15.36;77.00
78485;BME280;67773;50.806;8.776;2023-10-08T05:10:08;100265.66;;;15.27;76.91
78485;BME280;67773;50.806;8.776;2023-10-08T05:12:49;100280.66;;;15.16;77.35
78485;BME280;67773;50.806;8.776;2023-10-08T05:15:30;100290.47;;;15.01;77.66
78485;BME280;67773;50.806;8.776;2023-10-08T05:18:01;100299.00;;;14.92;78.49
78485;BME280;67773;50.806;8.776;2023-10-08T05:20:50;100329.22;;;15.08;78.96
78485;BME280;67773;50.806;8.776;2023-10-08T05:23:17;100313.41;;;14.89;78.27
78485;BME280;67773;50.806;8.776;2023-10-08T05:25:50;100314.59;;;14.69;78.91
78485;BME280;67773;50.806;8.776;2023-10-08T05:28:34;100321.91;;;14.66;79.63
78485;BME280;67773;50.806;8.776;2023-10-08T05:31:23;100327.75;;;14.57;80.85
78485;BME280;67773;50.806;8.776;2023-10-08T05:34:07;100331.19;;;14.59;80.81
78485;BME280;67773;50.806;8.776;2023-10-08T05:37:01;100328.22;;;14.49;81.51
78485;BME280;67773;50.806;8.776;2023-10-08T05:39:29;100319.16;;;14.52;81.76
78485;BME280;67773;50.806;8.776;2023-10-08T05:42:05;100303.31;;;14.49;82.07
78485;BME280;67773;50.806;8.776;2023-10-08T05:44:45;100300.56;;;14.50;81.56
78485;BME280;67773;50.806;8.776;2023-10-08T05:47:14;100293.97;;;14.40;81.66
78485;BME280;67773;50.806;8.776;2023-10-08T05:49:39;100319.75;;;14.72;80.40
78485;BME280;67773;50.806;8.776;2023-10-08T05:52:18;100318.44;;;14.48;81.16
78485;BME280;67773;50.806;8.776;2023-10-08T05:54:51;100327.66;;;14.42;81.90
78485;BME280;67773;50.806;8.776;2023-10-08T05:57:35;100315.09;;;14.44;81.67
78485;BME280;67773;50.806;8.776;2023-10-08T06:00:11;100291.63;;;14.34;81.60
78485;BME280;67773;50.806;8.776;2023-10-08T06:02:41;100326.03;;;14.40;82.29
78485;BME280;67773;50.806;8.776;2023-10-08T06:05:10;100324.31;;;14.39;82.31
78485;BME280;67773;50.806;8.776;2023-10-08T06:07:44;100331.75;;;14.50;82.37
78485;BME280;67773;50.806;8.776;2023-10-08T06:10:15;100375.94;;;14.55;81.80
78485;BME280;67773;50.806;8.776;2023-10-08T06:15:39;100389.75;;;14.63;81.62
78485;BME280;67773;50.806;8.776;2023-10-08T06:18:23;100376.72;;;14.57;81.60
78485;BME280;67773;50.806;8.776;2023-10-08T06:20:53;100379.47;;;14.56;81.66
78485;BME280;67773;50.806;8.776;2023-10-08T06:23:22;100385.00;;;14.53;81.70
78485;BME280;67773;50.806;8.776;2023-10-08T06:25:49;100383.38;;;14.50;83.07
78485;BME280;67773;50.806;8.776;2023-10-08T06:28:33;100392.06;;;14.54;83.51
78485;BME280;67773;50.806;8.776;2023-10-08T06:31:00;100373.94;;;14.59;83.02
78485;BME280;67773;50.806;8.776;2023-10-08T06:33:26;100381.47;;;14.52;82.45
78485;BME280;67773;50.806;8.776;2023-10-08T06:35:56;100366.28;;;14.53;83.04
78485;BME280;67773;50.806;8.776;2023-10-08T06:38:31;100385.53;;;14.59;83.69
78485;BME280;67773;50.806;8.776;2023-10-08T06:41:04;100387.41;;;14.57;83.52
78485;BME280;67773;50.806;8.776;2023-10-08T06:43:41;100384.47;;;14.62;83.04
78485;BME280;67773;50.806;8.776;2023-10-08T06:46:30;100372.75;;;14.64;83.58
78485;BME280;67773;50.806;8.776;2023-10-08T06:49:00;100371.38;;;14.73;83.17
78485;BME280;67773;50.806;8.776;2023-10-08T06:51:25;100366.69;;;14.77;83.27
78485;BME280;67773;50.806;8.776;2023-10-08T06:53:51;100375.06;;;14.86;82.97
78485;BME280;67773;50.806;8.776;2023-10-08T06:56:19;100369.63;;;14.88;82.11
78485;BME280;67773;50.806;8.776;2023-10-08T06:58:45;100397.25;;;15.18;80.74
78485;BME280;67773;50.806;8.776;2023-10-08T07:01:18;100379.88;;;14.95;81.14
78485;BME280;67773;50.806;8.776;2023-10-08T07:03:48;100366.59;;;14.94;81.18
78485;BME280;67773;50.806;8.776;2023-10-08T07:06:17;100351.78;;;14.88;81.60
78485;BME280;67773;50.806;8.776;2023-10-08T07:08:51;100355.31;;;14.89;81.99
78485;BME280;67773;50.806;8.776;2023-10-08T07:11:21;100343.50;;;14.93;81.58
78485;BME280;67773;50.806;8.776;2023-10-08T07:13:47;100345.94;;;14.82;81.73
78485;BME280;67773;50.806;8.776;2023-10-08T07:16:12;100366.31;;;15.14;80.77
78485;BME280;67773;50.806;8.776;2023-10-08T07:18:38;100388.03;;;15.24;80.03
78485;BME280;67773;50.806;8.776;2023-10-08T07:21:03;100378.00;;;15.27;79.40
78485;BME280;67773;50.806;8.776;2023-10-08T07:23:37;100395.09;;;15.55;78.61
78485;BME280;67773;50.806;8.776;2023-10-08T07:26:19;100402.66;;;15.63;78.17
78485;BME280;67773;50.806;8.776;2023-10-08T07:28:49;100422.78;;;15.70;78.53
78485;BME280;67773;50.806;8.776;2023-10-08T07:31:21;100411.59;;;15.63;78.85
78485;BME280;67773;50.806;8.776;2023-10-08T07:33:51;100407.50;;;15.56;78.58
78485;BME280;67773;50.806;8.776;2023-10-08T07:36:23;100433.50;;;15.54;79.10
78485;BME280;67773;50.806;8.776;2023-10-08T07:38:51;100441.09;;;15.62;78.76
78485;BME280;67773;50.806;8.776;2023-10-08T07:41:16;100433.31;;;15.57;78.91
78485;BME280;67773;50.806;8.776;2023-10-08T07:43:44;100434.72;;;15.64;79.10
78485;BME280;67773;50.806;8.776;2023-10-08T07:46:26;100427.25;;;15.69;79.67
78485;BME280;67773;50.806;8.776;2023-10-08T07:48:55;100435.69;;;15.77;79.35
78485;BME280;67773;50.806;8.776;2023-10-08T07:51:20;100463.44;;;15.76;80.20
78485;BME280;67773;50.806;8.776;2023-10-08T07:53:50;100461.28;;;15.67;80.64
78485;BME280;67773;50.806;8.776;2023-10-08T07:56:25;100467.81;;;15.77;80.29
78485;BME280;67773;50.806;8.776;2023-10-08T07:58:53;100457.63;;;15.84;79.99
78485;BME280;67773;50.806;8.776;2023-10-08T08:01:23;100467.84;;;15.92;79.86
78485;BME280;67773;50.806;8.776;2023-10-08T08:03:50;100463.84;;;15.99;78.91
78485;BME280;67773;50.806;8.776;2023-10-08T08:06:15;100460.41;;;16.11;78.22
78485;BME280;67773;50.806;8.776;2023-10-08T08:08:41;100458.81;;;16.23;78.04
78485;BME280;67773;50.806;8.776;2023-10-08T08:11:07;100451.91;;;16.33;77.03
78485;BME280;67773;50.806;8.776;2023-10-08T08:13:43;100449.31;;;16.45;76.69
78485;BME280;67773;50.806;8.776;2023-10-08T08:16:10;100465.22;;;16.34;76.25
78485;BME280;67773;50.806;8.776;2023-10-08T08:18:46;100466.66;;;16.54;76.10
78485;BME280;67773;50.806;8.776;2023-10-08T08:21:12;100464.75;;;16.70;75.23
78485;BME280;67773;50.806;8.776;2023-10-08T08:23:46;100469.81;;;16.75;75.36
78485;BME280;67773;50.806;8.776;2023-10-08T08:26:22;100478.63;;;16.91;74.74
78485;BME280;67773;50.806;8.776;2023-10-08T08:29:05;100481.94;;;17.09;73.34
78485;BME280;67773;50.806;8.776;2023-10-08T08:31:35;100492.47;;;17.12;73.88
78485;BME280;67773;50.806;8.776;2023-10-08T08:34:02;100479.50;;;17.19;73.44
78485;BME280;67773;50.806;8.776;2023-10-08T08:36:29;100476.66;;;17.35;73.15
78485;BME280;67773;50.806;8.776;2023-10-08T08:38:57;100474.13;;;17.46;72.17
78485;BME280;67773;50.806;8.776;2023-10-08T08:41:23;100476.31;;;17.53;71.67
78485;BME280;67773;50.806;8.776;2023-10-08T08:43:53;100462.16;;;17.64;72.01
78485;BME280;67773;50.806;8.776;2023-10-08T08:46:43;100473.63;;;17.53;71.45
78485;BME280;67773;50.806;8.776;2023-10-08T08:49:10;100468.97;;;17.43;71.95
78485;BME280;67773;50.806;8.776;2023-10-08T08:51:38;100466.41;;;17.41;72.00
78485;BME280;67773;50.806;8.776;2023-10-08T08:54:04;100460.34;;;17.38;72.32
78485;BME280;67773;50.806;8.776;2023-10-08T08:56:40;100465.34;;;17.56;72.20
78485;BME280;67773;50.806;8.776;2023-10-08T08:59:08;100458.72;;;17.62;72.60
78485;BME280;67773;50.806;8.776;2023-10-08T09:01:37;100455.13;;;17.76;71.70
78485;BME280;67773;50.806;8.776;2023-10-08T09:04:04;100454.00;;;17.66;72.03
78485;BME280;67773;50.806;8.776;2023-10-08T09:06:36;100463.66;;;17.55;72.34
78485;BME280;67773;50.806;8.776;2023-10-08T09:09:05;100471.13;;;17.50;72.35
78485;BME280;67773;50.806;8.776;2023-10-08T09:11:47;100467.69;;;17.48;72.87
78485;BME280;67773;50.806;8.776;2023-10-08T09:14:17;100456.94;;;17.48;73.72
78485;BME280;67773;50.806;8.776;2023-10-08T09:16:43;100473.97;;;17.62;73.24
78485;BME280;67773;50.806;8.776;2023-10-08T09:19:09;100506.81;;;17.52;73.01
78485;BME280;67773;50.806;8.776;2023-10-08T09:21:40;100513.84;;;17.41;73.83
78485;BME280;67773;50.806;8.776;2023-10-08T09:24:07;100503.19;;;17.39;74.54
78485;BME280;67773;50.806;8.776;2023-10-08T09:26:35;100501.91;;;17.32;75.14
78485;BME280;67773;50.806;8.776;2023-10-08T09:29:04;100521.66;;;17.31;74.88
78485;BME280;67773;50.806;8.776;2023-10-08T09:31:30;100524.59;;;17.26;75.57
78485;BME280;67773;50.806;8.776;2023-10-08T09:34:01;100539.84;;;17.26;75.90
78485;BME280;67773;50.806;8.776;2023-10-08T09:36:29;100547.53;;;17.18;74.73
78485;BME280;67773;50.806;8.776;2023-10-08T09:39:03;100540.00;;;17.10;75.42
78485;BME280;67773;50.806;8.776;2023-10-08T09:41:32;100557.16;;;16.93;73.27
78485;BME280;67773;50.806;8.776;2023-10-08T09:44:01;100552.88;;;16.32;73.40
78485;BME280;67773;50.806;8.776;2023-10-08T09:46:30;100560.44;;;15.96;72.97
78485;BME280;67773;50.806;8.776;2023-10-08T09:49:00;100573.84;;;15.48;74.52
78485;BME280;67773;50.806;8.776;2023-10-08T09:51:29;100590.94;;;15.14;74.11
78485;BME280;67773;50.806;8.776;2023-10-08T09:54:09;100603.00;;;14.72;74.93
78485;BME280;67773;50.806;8.776;2023-10-08T09:56:36;100617.16;;;14.40;75.58
78485;BME280;67773;50.806;8.776;2023-10-08T09:59:02;100613.69;;;14.03;75.01
78485;BME280;67773;50.806;8.776;2023-10-08T10:01:27;100620.00;;;13.83;75.93
78485;BME280;67773;50.806;8.776;2023-10-08T10:03:53;100620.41;;;13.76;76.34
78485;BME280;67773;50.806;8.776;2023-10-08T10:06:19;100623.06;;;13.76;76.19
78485;BME280;67773;50.806;8.776;2023-10-08T10:08:45;100625.66;;;13.77;76.16
78485;BME280;67773;50.806;8.776;2023-10-08T10:11:12;100647.28;;;13.71;76.05
78485;BME280;67773;50.806;8.776;2023-10-08T10:13:50;100668.13;;;13.63;76.41
78485;BME280;67773;50.806;8.776;2023-10-08T10:16:18;100668.97;;;13.65;77.16
78485;BME280;67773;50.806;8.776;2023-10-08T10:18:48;100673.13;;;13.71;76.91
78485;BME280;67773;50.806;8.776;2023-10-08T10:23:43;100671.44;;;13.87;75.98
78485;BME280;67773;50.806;8.776;2023-10-08T10:26:29;100671.38;;;13.89;75.58
78485;BME280;67773;50.806;8.776;2023-10-08T10:31:34;100681.78;;;13.57;76.14
78485;BME280;67773;50.806;8.776;2023-10-08T10:34:10;100678.59;;;13.49;76.20
78485;BME280;67773;50.806;8.776;2023-10-08T10:36:37;100671.09;;;13.38;75.71
78485;BME280;67773;50.806;8.776;2023-10-08T10:39:05;100658.41;;;13.43;75.83
78485;BME280;67773;50.806;8.776;2023-10-08T10:41:50;100659.50;;;13.58;76.14
78485;BME280;67773;50.806;8.776;2023-10-08T10:44:16;100669.00;;;13.82;75.02
78485;BME280;67773;50.806;8.776;2023-10-08T10:46:42;100672.00;;;13.94;74.57
78485;BME280;67773;50.806;8.776;2023-10-08T10:49:09;100671.34;;;14.07;73.74
78485;BME280;67773;50.806;8.776;2023-10-08T10:51:50;100669.19;;;13.97;73.05
78485;BME280;67773;50.806;8.776;2023-10-08T10:54:23;100666.13;;;14.04;72.76
78485;BME280;67773;50.806;8.776;2023-10-08T10:56:53;100661.41;;;13.92;72.66
78485;BME280;67773;50.806;8.776;2023-10-08T10:59:31;100666.41;;;13.81;72.60
78485;BME280;67773;50.806;8.776;2023-10-08T11:02:04;100667.19;;;13.64;73.86
78485;BME280;67773;50.806;8.776;2023-10-08T11:04:56;100672.41;;;13.67;74.25
78485;BME280;67773;50.806;8.776;2023-10-08T11:07:32;100682.06;;;13.70;73.86
78485;BME280;67773;50.806;8.776;2023-10-08T11:09:59;100668.63;;;13.90;73.74
78485;BME280;67773;50.806;8.776;2023-10-08T11:12:24;100670.06;;;13.97;72.73
78485;BME280;67773;50.806;8.776;2023-10-08T11:15:08;100678.41;;;14.08;73.22
78485;BME280;67773;50.806;8.776;2023-10-08T11:17:41;100682.03;;;14.07;72.02
78485;BME280;67773;50.806;8.776;2023-10-08T11:20:25;100692.81;;;14.04;72.58
78485;BME280;67773;50.806;8.776;2023-10-08T11:22:51;100695.84;;;14.15;72.56
78485;BME280;67773;50.806;8.776;2023-10-08T11:25:23;100692.69;;;14.07;72.38
78485;BME280;67773;50.806;8.776;2023-10-08T11:27:51;100684.03;;;14.02;72.48
78485;BME280;67773;50.806;8.776;2023-10-08T11:30:24;100689.88;;;14.10;72.51
78485;BME280;67773;50.806;8.776;2023-10-08T11:32:50;100681.25;;;14.23;72.19
78485;BME280;67773;50.806;8.776;2023-10-08T11:35:15;100685.06;;;14.17;71.14
78485;BME280;67773;50.806;8.776;2023-10-08T11:37:45;100684.06;;;14.20;70.91
78485;BME280;67773;50.806;8.776;2023-10-08T11:40:23;100681.59;;;13.98;70.81
78485;BME280;67773;50.806;8.776;2023-10-08T11:42:54;100691.69;;;14.10;70.98
78485;BME280;67773;50.806;8.776;2023-10-08T11:45:22;100690.97;;;14.24;70.29
78485;BME280;67773;50.806;8.776;2023-10-08T11:48:04;100692.56;;;14.28;70.24
78485;BME280;67773;50.806;8.776;2023-10-08T11:50:37;100687.91;;;14.14;70.88
78485;BME280;67773;50.806;8.776;2023-10-08T11:53:03;100682.03;;;14.07;71.12
78485;BME280;67773;50.806;8.776;2023-10-08T11:55:31;100678.25;;;14.11;70.65
78485;BME280;67773;50.806;8.776;2023-10-08T11:58:01;100679.41;;;14.06;71.54
78485;BME280;67773;50.806;8.776;2023-10-08T12:00:26;100666.94;;;14.24;70.58
78485;BME280;67773;50.806;8.776;2023-10-08T12:02:52;100677.47;;;14.27;70.58
78485;BME280;67773;50.806;8.776;2023-10-08T12:05:20;100674.25;;;14.20;70.65
78485;BME280;67773;50.806;8.776;2023-10-08T12:07:46;100673.25;;;14.40;70.60
78485;BME280;67773;50.806;8.776;2023-10-08T12:10:12;100678.69;;;14.38;70.54
78485;BME280;67773;50.806;8.776;2023-10-08T12:12:38;100672.75;;;14.51;70.42
78485;BME280;67773;50.806;8.776;2023-10-08T12:15:03;100667.06;;;14.39;70.43
78485;BME280;67773;50.806;8.776;2023-10-08T12:17:29;100663.44;;;14.40;70.29
78485;BME280;67773;50.806;8.776;2023-10-08T12:20:05;100672.03;;;14.11;69.97
78485;BME280;67773;50.806;8.776;2023-10-08T12:22:48;100669.00;;;14.36;69.75
78485;BME280;67773;50.806;8.776;2023-10-08T12:25:14;100675.13;;;14.21;70.72
78485;BME280;67773;50.806;8.776;2023-10-08T12:27:39;100668.34;;;14.13;72.14
78485;BME280;67773;50.806;8.776;2023-10-08T12:30:05;100664.44;;;14.21;70.66
78485;BME280;67773;50.806;8.776;2023-10-08T12:32:35;100664.59;;;14.18;71.16
78485;BME280;67773;50.806;8.776;2023-10-08T12:35:03;100669.94;;;14.35;71.12
78485;BME280;67773;50.806;8.776;2023-10-08T12:37:28;100663.69;;;14.53;69.62
78485;BME280;67773;50.806;8.776;2023-10-08T12:39:55;100668.66;;;14.61;69.74
78485;BME280;67773;50.806;8.776;2023-10-08T12:42:36;100661.34;;;14.64;68.66
78485;BME280;67773;50.806;8.776;2023-10-08T12:45:04;100664.94;;;14.63;69.42
78485;BME280;67773;50.806;8.776;2023-10-08T12:47:38;100659.59;;;14.46;69.75
78485;BME280;67773;50.806;8.776;2023-10-08T12:50:03;100658.78;;;14.44;70.61
78485;BME280;67773;50.806;8.776;2023-10-08T12:52:32;100656.00;;;14.47;69.83
78485;BME280;67773;50.806;8.776;2023-10-08T12:55:00;100650.34;;;14.53;70.33
78485;BME280;67773;50.806;8.776;2023-10-08T12:57:30;100658.09;;;14.58;70.55
78485;BME280;67773;50.806;8.776;2023-10-08T12:59:58;100663.22;;;14.45;70.23
78485;BME280;67773;50.806;8.776;2023-10-08T13:02:24;100658.63;;;14.30;70.19
78485;BME280;67773;50.806;8.776;2023-10-08T13:04:53;100664.97;;;14.10;71.30
78485;BME280;67773;50.806;8.776;2023-10-08T13:07:20;100663.78;;;13.98;72.47
78485;BME280;67773;50.806;8.776;2023-10-08T13:09:47;100664.06;;;13.92;73.73
78485;BME280;67773;50.806;8.776;2023-10-08T13:12:13;100654.75;;;14.01;72.51
78485;BME280;67773;50.806;8.776;2023-10-08T13:14:40;100652.78;;;14.04;71.96